Terminal Aerodrome Forecast
Issued by NWS

Home | Current Version | Previous Version | Text Only | Print | Product List | Glossary On
Versions: 1 2 3 4 5 6 7 8 9 10 11 12 13
103
FTUS46 KSEW 241123
TAFBFI
TAF
KBFI 241123Z 2412/2512 15004KT P6SM -SHRA SCT025 BKN040 OVC050
     FM241700 32006KT P6SM VCSH SCT030 BKN050 OVC090
     FM242200 31007KT P6SM VCSH SCT035 BKN070
     FM250500 17006KT P6SM SCT025 BKN035 OVC050
     FM250900 16007KT P6SM SCT010 BKN020 OVC030=

USA.gov is the U.S. government's official web portal to all federal, state and local government web resources and services.